sensor_id;sensor_type;location;lat;lon;timestamp;P1;durP1;ratioP1;P2;durP2;ratioP2
28625;SDS011;18905;42.668;23.364;2023-08-20T00:02:02;10.73;;;6.15;;
28625;SDS011;18905;42.668;23.364;2023-08-20T00:04:28;13.52;;;6.97;;
28625;SDS011;18905;42.668;23.364;2023-08-20T00:06:56;12.10;;;6.43;;
28625;SDS011;18905;42.668;23.364;2023-08-20T00:09:22;13.52;;;6.68;;
28625;SDS011;18905;42.668;23.364;2023-08-20T00:11:48;10.93;;;6.80;;
28625;SDS011;18905;42.668;23.364;2023-08-20T00:14:15;11.02;;;6.63;;
28625;SDS011;18905;42.668;23.364;2023-08-20T00:16:42;10.88;;;6.68;;
28625;SDS011;18905;42.668;23.364;2023-08-20T00:19:08;8.50;;;6.75;;
28625;SDS011;18905;42.668;23.364;2023-08-20T00:21:34;9.75;;;6.13;;
28625;SDS011;18905;42.668;23.364;2023-08-20T00:24:00;18.88;;;6.88;;
28625;SDS011;18905;42.668;23.364;2023-08-20T00:26:25;13.23;;;6.75;;
28625;SDS011;18905;42.668;23.364;2023-08-20T00:28:51;11.15;;;7.28;;
28625;SDS011;18905;42.668;23.364;2023-08-20T00:31:16;8.88;;;6.80;;
28625;SDS011;18905;42.668;23.364;2023-08-20T00:33:42;13.85;;;7.25;;
28625;SDS011;18905;42.668;23.364;2023-08-20T00:36:08;15.00;;;6.95;;
28625;SDS011;18905;42.668;23.364;2023-08-20T00:38:33;12.43;;;6.53;;
28625;SDS011;18905;42.668;23.364;2023-08-20T00:40:58;9.25;;;6.47;;
28625;SDS011;18905;42.668;23.364;2023-08-20T00:43:24;12.02;;;6.63;;
28625;SDS011;18905;42.668;23.364;2023-08-20T00:45:49;14.07;;;7.05;;
28625;SDS011;18905;42.668;23.364;2023-08-20T00:48:15;11.75;;;7.03;;
28625;SDS011;18905;42.668;23.364;2023-08-20T00:50:40;12.52;;;7.15;;
28625;SDS011;18905;42.668;23.364;2023-08-20T00:53:06;9.85;;;6.82;;
28625;SDS011;18905;42.668;23.364;2023-08-20T00:55:33;10.90;;;7.13;;
28625;SDS011;18905;42.668;23.364;2023-08-20T00:57:58;10.40;;;6.97;;
28625;SDS011;18905;42.668;23.364;2023-08-20T01:00:25;12.10;;;6.30;;
28625;SDS011;18905;42.668;23.364;2023-08-20T01:02:50;10.90;;;6.65;;
28625;SDS011;18905;42.668;23.364;2023-08-20T01:05:16;11.25;;;7.30;;
28625;SDS011;18905;42.668;23.364;2023-08-20T01:10:47;8.93;;;6.95;;
28625;SDS011;18905;42.668;23.364;2023-08-20T01:13:17;10.55;;;6.75;;
28625;SDS011;18905;42.668;23.364;2023-08-20T01:15:43;13.60;;;7.00;;
28625;SDS011;18905;42.668;23.364;2023-08-20T01:18:08;12.43;;;6.97;;
28625;SDS011;18905;42.668;23.364;2023-08-20T01:20:35;13.45;;;7.45;;
28625;SDS011;18905;42.668;23.364;2023-08-20T01:25:45;9.93;;;6.90;;
28625;SDS011;18905;42.668;23.364;2023-08-20T01:28:36;11.35;;;7.13;;
28625;SDS011;18905;42.668;23.364;2023-08-20T01:31:02;8.52;;;6.90;;
28625;SDS011;18905;42.668;23.364;2023-08-20T01:33:28;10.55;;;7.38;;
28625;SDS011;18905;42.668;23.364;2023-08-20T01:35:55;14.50;;;7.30;;
28625;SDS011;18905;42.668;23.364;2023-08-20T01:38:21;10.52;;;7.72;;
28625;SDS011;18905;42.668;23.364;2023-08-20T01:40:47;13.45;;;7.57;;
28625;SDS011;18905;42.668;23.364;2023-08-20T01:43:13;11.73;;;7.40;;
28625;SDS011;18905;42.668;23.364;2023-08-20T01:45:38;17.35;;;7.95;;
28625;SDS011;18905;42.668;23.364;2023-08-20T01:48:04;11.80;;;7.90;;
28625;SDS011;18905;42.668;23.364;2023-08-20T01:50:30;12.95;;;7.80;;
28625;SDS011;18905;42.668;23.364;2023-08-20T01:52:55;9.95;;;7.13;;
28625;SDS011;18905;42.668;23.364;2023-08-20T01:55:23;16.73;;;8.23;;
28625;SDS011;18905;42.668;23.364;2023-08-20T01:57:49;10.77;;;7.88;;
28625;SDS011;18905;42.668;23.364;2023-08-20T02:00:14;12.15;;;7.20;;
28625;SDS011;18905;42.668;23.364;2023-08-20T02:02:39;9.40;;;7.78;;
28625;SDS011;18905;42.668;23.364;2023-08-20T02:05:05;10.93;;;7.95;;
28625;SDS011;18905;42.668;23.364;2023-08-20T02:07:31;10.68;;;7.85;;
28625;SDS011;18905;42.668;23.364;2023-08-20T02:09:56;10.60;;;7.80;;
28625;SDS011;18905;42.668;23.364;2023-08-20T02:12:21;11.98;;;8.10;;
28625;SDS011;18905;42.668;23.364;2023-08-20T02:14:47;14.45;;;8.55;;
28625;SDS011;18905;42.668;23.364;2023-08-20T02:17:12;10.52;;;8.13;;
28625;SDS011;18905;42.668;23.364;2023-08-20T02:19:39;15.18;;;8.20;;
28625;SDS011;18905;42.668;23.364;2023-08-20T02:22:04;14.15;;;8.65;;
28625;SDS011;18905;42.668;23.364;2023-08-20T02:24:30;13.85;;;8.15;;
28625;SDS011;18905;42.668;23.364;2023-08-20T02:26:55;10.55;;;7.90;;
28625;SDS011;18905;42.668;23.364;2023-08-20T02:29:20;14.20;;;8.75;;
28625;SDS011;18905;42.668;23.364;2023-08-20T02:31:46;14.45;;;8.52;;
28625;SDS011;18905;42.668;23.364;2023-08-20T02:34:11;14.27;;;8.45;;
28625;SDS011;18905;42.668;23.364;2023-08-20T02:36:37;13.50;;;8.40;;
28625;SDS011;18905;42.668;23.364;2023-08-20T02:39:02;11.95;;;8.82;;
28625;SDS011;18905;42.668;23.364;2023-08-20T02:41:29;10.45;;;8.30;;
28625;SDS011;18905;42.668;23.364;2023-08-20T02:43:55;14.20;;;8.70;;
28625;SDS011;18905;42.668;23.364;2023-08-20T02:46:20;13.73;;;8.80;;
28625;SDS011;18905;42.668;23.364;2023-08-20T02:48:45;12.82;;;8.85;;
28625;SDS011;18905;42.668;23.364;2023-08-20T02:51:11;14.25;;;8.88;;
28625;SDS011;18905;42.668;23.364;2023-08-20T02:53:36;11.75;;;8.95;;
28625;SDS011;18905;42.668;23.364;2023-08-20T02:56:01;15.05;;;8.75;;
28625;SDS011;18905;42.668;23.364;2023-08-20T02:58:28;16.13;;;9.13;;
28625;SDS011;18905;42.668;23.364;2023-08-20T03:00:54;13.35;;;8.93;;
28625;SDS011;18905;42.668;23.364;2023-08-20T03:03:19;15.35;;;8.65;;
28625;SDS011;18905;42.668;23.364;2023-08-20T03:05:44;13.63;;;9.07;;
28625;SDS011;18905;42.668;23.364;2023-08-20T03:08:14;14.32;;;8.52;;
28625;SDS011;18905;42.668;23.364;2023-08-20T03:10:43;18.98;;;8.80;;
28625;SDS011;18905;42.668;23.364;2023-08-20T03:13:08;14.38;;;9.15;;
28625;SDS011;18905;42.668;23.364;2023-08-20T03:15:34;13.13;;;8.77;;
28625;SDS011;18905;42.668;23.364;2023-08-20T03:17:59;10.93;;;8.05;;
28625;SDS011;18905;42.668;23.364;2023-08-20T03:20:24;13.98;;;8.75;;
28625;SDS011;18905;42.668;23.364;2023-08-20T03:22:50;11.27;;;8.60;;
28625;SDS011;18905;42.668;23.364;2023-08-20T03:25:15;11.35;;;8.50;;
28625;SDS011;18905;42.668;23.364;2023-08-20T03:27:41;12.13;;;8.70;;
28625;SDS011;18905;42.668;23.364;2023-08-20T03:30:07;10.52;;;8.63;;
28625;SDS011;18905;42.668;23.364;2023-08-20T03:32:32;14.43;;;8.45;;
28625;SDS011;18905;42.668;23.364;2023-08-20T03:34:58;17.15;;;8.77;;
28625;SDS011;18905;42.668;23.364;2023-08-20T03:37:24;15.05;;;9.50;;
28625;SDS011;18905;42.668;23.364;2023-08-20T03:39:50;16.30;;;8.32;;
28625;SDS011;18905;42.668;23.364;2023-08-20T03:42:15;13.68;;;8.40;;
28625;SDS011;18905;42.668;23.364;2023-08-20T03:44:40;15.95;;;8.00;;
28625;SDS011;18905;42.668;23.364;2023-08-20T03:47:06;15.13;;;9.23;;
28625;SDS011;18905;42.668;23.364;2023-08-20T03:49:31;13.73;;;8.55;;
28625;SDS011;18905;42.668;23.364;2023-08-20T03:51:56;17.55;;;9.18;;
28625;SDS011;18905;42.668;23.364;2023-08-20T03:54:22;16.98;;;9.43;;
28625;SDS011;18905;42.668;23.364;2023-08-20T03:56:47;26.10;;;9.23;;
28625;SDS011;18905;42.668;23.364;2023-08-20T03:59:12;13.65;;;9.00;;
28625;SDS011;18905;42.668;23.364;2023-08-20T04:01:38;12.57;;;9.18;;
28625;SDS011;18905;42.668;23.364;2023-08-20T04:04:04;15.68;;;10.85;;
28625;SDS011;18905;42.668;23.364;2023-08-20T04:06:29;15.25;;;10.25;;
28625;SDS011;18905;42.668;23.364;2023-08-20T04:08:55;16.30;;;9.70;;
28625;SDS011;18905;42.668;23.364;2023-08-20T04:11:20;17.05;;;9.82;;
28625;SDS011;18905;42.668;23.364;2023-08-20T04:13:46;22.15;;;10.10;;
28625;SDS011;18905;42.668;23.364;2023-08-20T04:16:11;14.32;;;9.18;;
28625;SDS011;18905;42.668;23.364;2023-08-20T04:18:36;18.60;;;10.23;;
28625;SDS011;18905;42.668;23.364;2023-08-20T04:21:02;15.07;;;9.15;;
28625;SDS011;18905;42.668;23.364;2023-08-20T04:23:27;14.07;;;9.00;;
28625;SDS011;18905;42.668;23.364;2023-08-20T04:25:53;13.75;;;9.35;;
28625;SDS011;18905;42.668;23.364;2023-08-20T04:28:18;12.82;;;8.93;;
28625;SDS011;18905;42.668;23.364;2023-08-20T04:30:43;14.23;;;9.02;;
28625;SDS011;18905;42.668;23.364;2023-08-20T04:33:09;13.48;;;8.68;;
28625;SDS011;18905;42.668;23.364;2023-08-20T04:35:34;18.40;;;9.00;;
28625;SDS011;18905;42.668;23.364;2023-08-20T04:38:00;12.50;;;9.13;;
28625;SDS011;18905;42.668;23.364;2023-08-20T04:40:25;18.25;;;9.48;;
28625;SDS011;18905;42.668;23.364;2023-08-20T04:42:51;16.13;;;9.05;;
28625;SDS011;18905;42.668;23.364;2023-08-20T04:45:16;14.75;;;9.85;;
28625;SDS011;18905;42.668;23.364;2023-08-20T04:47:44;14.68;;;9.07;;
28625;SDS011;18905;42.668;23.364;2023-08-20T04:50:10;15.02;;;9.50;;
28625;SDS011;18905;42.668;23.364;2023-08-20T04:52:35;18.73;;;9.73;;
28625;SDS011;18905;42.668;23.364;2023-08-20T04:55:01;13.70;;;8.70;;
28625;SDS011;18905;42.668;23.364;2023-08-20T04:57:27;14.57;;;8.68;;
28625;SDS011;18905;42.668;23.364;2023-08-20T04:59:52;15.10;;;9.07;;
28625;SDS011;18905;42.668;23.364;2023-08-20T05:02:18;18.20;;;9.77;;
28625;SDS011;18905;42.668;23.364;2023-08-20T05:04:43;13.52;;;9.43;;
28625;SDS011;18905;42.668;23.364;2023-08-20T05:07:09;12.82;;;8.90;;
28625;SDS011;18905;42.668;23.364;2023-08-20T05:09:34;18.58;;;10.45;;
28625;SDS011;18905;42.668;23.364;2023-08-20T05:12:00;23.40;;;11.07;;
28625;SDS011;18905;42.668;23.364;2023-08-20T05:14:26;22.10;;;10.95;;
28625;SDS011;18905;42.668;23.364;2023-08-20T05:16:52;18.65;;;11.20;;
28625;SDS011;18905;42.668;23.364;2023-08-20T05:19:17;20.42;;;11.38;;
28625;SDS011;18905;42.668;23.364;2023-08-20T05:21:42;14.88;;;11.15;;
28625;SDS011;18905;42.668;23.364;2023-08-20T05:24:08;20.90;;;11.52;;
28625;SDS011;18905;42.668;23.364;2023-08-20T05:26:34;16.13;;;11.07;;
28625;SDS011;18905;42.668;23.364;2023-08-20T05:29:00;23.33;;;11.93;;
28625;SDS011;18905;42.668;23.364;2023-08-20T05:31:25;22.00;;;12.32;;
28625;SDS011;18905;42.668;23.364;2023-08-20T05:33:50;21.15;;;11.25;;
28625;SDS011;18905;42.668;23.364;2023-08-20T05:36:16;20.73;;;11.70;;
28625;SDS011;18905;42.668;23.364;2023-08-20T05:38:41;14.88;;;11.27;;
28625;SDS011;18905;42.668;23.364;2023-08-20T05:41:08;15.50;;;10.90;;
28625;SDS011;18905;42.668;23.364;2023-08-20T05:43:33;21.90;;;11.50;;
28625;SDS011;18905;42.668;23.364;2023-08-20T05:45:58;14.90;;;10.32;;
28625;SDS011;18905;42.668;23.364;2023-08-20T05:48:24;30.55;;;11.50;;
28625;SDS011;18905;42.668;23.364;2023-08-20T05:50:49;18.10;;;11.73;;
28625;SDS011;18905;42.668;23.364;2023-08-20T05:53:14;20.05;;;11.93;;
28625;SDS011;18905;42.668;23.364;2023-08-20T05:55:40;19.23;;;11.07;;
28625;SDS011;18905;42.668;23.364;2023-08-20T05:58:05;24.42;;;11.77;;
28625;SDS011;18905;42.668;23.364;2023-08-20T06:00:31;13.95;;;10.40;;
28625;SDS011;18905;42.668;23.364;2023-08-20T06:02:56;17.08;;;10.98;;
28625;SDS011;18905;42.668;23.364;2023-08-20T06:05:21;20.65;;;10.63;;
28625;SDS011;18905;42.668;23.364;2023-08-20T06:07:47;14.07;;;10.07;;
28625;SDS011;18905;42.668;23.364;2023-08-20T06:10:12;13.93;;;10.15;;
28625;SDS011;18905;42.668;23.364;2023-08-20T06:12:38;13.23;;;10.00;;
28625;SDS011;18905;42.668;23.364;2023-08-20T06:15:03;14.65;;;10.23;;
28625;SDS011;18905;42.668;23.364;2023-08-20T06:17:29;13.18;;;10.75;;
28625;SDS011;18905;42.668;23.364;2023-08-20T06:19:55;16.25;;;9.98;;
28625;SDS011;18905;42.668;23.364;2023-08-20T06:22:20;16.80;;;9.85;;
28625;SDS011;18905;42.668;23.364;2023-08-20T06:24:45;12.88;;;10.02;;
28625;SDS011;18905;42.668;23.364;2023-08-20T06:27:11;14.80;;;10.38;;
28625;SDS011;18905;42.668;23.364;2023-08-20T06:29:36;15.95;;;9.35;;
28625;SDS011;18905;42.668;23.364;2023-08-20T06:32:02;16.30;;;9.73;;
28625;SDS011;18905;42.668;23.364;2023-08-20T06:34:28;19.85;;;8.95;;
28625;SDS011;18905;42.668;23.364;2023-08-20T06:36:53;16.95;;;9.20;;
28625;SDS011;18905;42.668;23.364;2023-08-20T06:39:19;9.38;;;8.38;;
28625;SDS011;18905;42.668;23.364;2023-08-20T06:41:45;21.02;;;8.88;;
28625;SDS011;18905;42.668;23.364;2023-08-20T06:44:10;18.77;;;8.88;;
28625;SDS011;18905;42.668;23.364;2023-08-20T06:46:36;15.35;;;8.55;;
28625;SDS011;18905;42.668;23.364;2023-08-20T06:49:02;17.98;;;8.43;;
28625;SDS011;18905;42.668;23.364;2023-08-20T06:51:28;19.23;;;8.65;;
28625;SDS011;18905;42.668;23.364;2023-08-20T06:53:53;16.48;;;8.52;;
28625;SDS011;18905;42.668;23.364;2023-08-20T06:56:19;15.23;;;7.30;;
28625;SDS011;18905;42.668;23.364;2023-08-20T06:58:45;20.33;;;8.30;;
28625;SDS011;18905;42.668;23.364;2023-08-20T07:01:10;15.68;;;7.78;;
28625;SDS011;18905;42.668;23.364;2023-08-20T07:03:38;15.43;;;8.10;;
28625;SDS011;18905;42.668;23.364;2023-08-20T07:06:04;15.20;;;7.65;;
28625;SDS011;18905;42.668;23.364;2023-08-20T07:08:31;16.08;;;7.60;;
28625;SDS011;18905;42.668;23.364;2023-08-20T07:10:57;14.07;;;7.65;;
28625;SDS011;18905;42.668;23.364;2023-08-20T07:13:23;17.30;;;8.13;;
28625;SDS011;18905;42.668;23.364;2023-08-20T07:15:49;15.35;;;7.97;;
28625;SDS011;18905;42.668;23.364;2023-08-20T07:18:14;13.45;;;6.07;;
28625;SDS011;18905;42.668;23.364;2023-08-20T07:20:43;15.32;;;7.15;;
28625;SDS011;18905;42.668;23.364;2023-08-20T07:23:09;15.38;;;6.60;;
28625;SDS011;18905;42.668;23.364;2023-08-20T07:25:38;11.50;;;6.32;;
28625;SDS011;18905;42.668;23.364;2023-08-20T07:28:05;10.30;;;6.03;;
28625;SDS011;18905;42.668;23.364;2023-08-20T07:30:31;14.38;;;6.30;;
28625;SDS011;18905;42.668;23.364;2023-08-20T07:32:57;8.85;;;5.30;;
28625;SDS011;18905;42.668;23.364;2023-08-20T07:35:23;10.85;;;6.00;;
28625;SDS011;18905;42.668;23.364;2023-08-20T07:37:48;8.77;;;6.05;;
28625;SDS011;18905;42.668;23.364;2023-08-20T07:40:14;12.38;;;5.80;;
28625;SDS011;18905;42.668;23.364;2023-08-20T07:42:40;8.73;;;5.60;;
28625;SDS011;18905;42.668;23.364;2023-08-20T07:45:05;8.30;;;5.47;;
28625;SDS011;18905;42.668;23.364;2023-08-20T07:47:32;10.65;;;5.55;;
28625;SDS011;18905;42.668;23.364;2023-08-20T07:49:58;9.65;;;5.50;;
28625;SDS011;18905;42.668;23.364;2023-08-20T07:52:23;11.55;;;5.60;;
28625;SDS011;18905;42.668;23.364;2023-08-20T07:54:48;8.43;;;5.28;;
28625;SDS011;18905;42.668;23.364;2023-08-20T07:57:14;8.75;;;4.80;;
28625;SDS011;18905;42.668;23.364;2023-08-20T07:59:39;7.05;;;4.80;;
28625;SDS011;18905;42.668;23.364;2023-08-20T08:02:05;6.93;;;4.97;;
28625;SDS011;18905;42.668;23.364;2023-08-20T08:04:30;10.40;;;5.57;;
28625;SDS011;18905;42.668;23.364;2023-08-20T08:06:56;12.93;;;5.03;;
28625;SDS011;18905;42.668;23.364;2023-08-20T08:09:25;12.10;;;5.25;;
28625;SDS011;18905;42.668;23.364;2023-08-20T08:11:52;9.95;;;5.15;;
28625;SDS011;18905;42.668;23.364;2023-08-20T08:14:17;8.68;;;5.65;;
28625;SDS011;18905;42.668;23.364;2023-08-20T08:16:44;11.30;;;5.63;;
28625;SDS011;18905;42.668;23.364;2023-08-20T08:19:10;7.60;;;4.80;;
28625;SDS011;18905;42.668;23.364;2023-08-20T08:21:36;6.30;;;5.00;;
28625;SDS011;18905;42.668;23.364;2023-08-20T08:24:02;7.63;;;5.35;;
28625;SDS011;18905;42.668;23.364;2023-08-20T08:26:27;7.10;;;4.80;;
28625;SDS011;18905;42.668;23.364;2023-08-20T08:28:53;8.32;;;4.50;;
28625;SDS011;18905;42.668;23.364;2023-08-20T08:31:18;7.53;;;4.95;;
28625;SDS011;18905;42.668;23.364;2023-08-20T08:33:44;5.90;;;4.75;;
28625;SDS011;18905;42.668;23.364;2023-08-20T08:36:09;6.53;;;4.50;;
28625;SDS011;18905;42.668;23.364;2023-08-20T08:38:36;7.72;;;5.30;;
28625;SDS011;18905;42.668;23.364;2023-08-20T08:41:02;8.13;;;4.57;;
28625;SDS011;18905;42.668;23.364;2023-08-20T08:43:33;6.70;;;4.22;;
28625;SDS011;18905;42.668;23.364;2023-08-20T08:45:59;8.80;;;4.13;;
28625;SDS011;18905;42.668;23.364;2023-08-20T08:48:26;5.95;;;3.67;;
28625;SDS011;18905;42.668;23.364;2023-08-20T08:50:52;7.80;;;3.95;;
28625;SDS011;18905;42.668;23.364;2023-08-20T08:53:18;7.97;;;3.97;;
28625;SDS011;18905;42.668;23.364;2023-08-20T08:55:44;7.60;;;4.03;;
28625;SDS011;18905;42.668;23.364;2023-08-20T08:58:09;7.57;;;4.32;;
28625;SDS011;18905;42.668;23.364;2023-08-20T09:00:34;5.47;;;3.63;;
28625;SDS011;18905;42.668;23.364;2023-08-20T09:03:00;5.85;;;4.00;;
28625;SDS011;18905;42.668;23.364;2023-08-20T09:05:25;8.85;;;3.70;;
28625;SDS011;18905;42.668;23.364;2023-08-20T09:07:55;6.53;;;3.85;;
28625;SDS011;18905;42.668;23.364;2023-08-20T09:10:22;3.88;;;3.20;;
28625;SDS011;18905;42.668;23.364;2023-08-20T09:12:50;4.43;;;3.45;;
28625;SDS011;18905;42.668;23.364;2023-08-20T09:15:19;10.30;;;4.30;;
28625;SDS011;18905;42.668;23.364;2023-08-20T09:17:44;6.63;;;3.75;;
28625;SDS011;18905;42.668;23.364;2023-08-20T09:20:11;11.73;;;4.32;;
28625;SDS011;18905;42.668;23.364;2023-08-20T09:22:37;6.82;;;3.40;;
28625;SDS011;18905;42.668;23.364;2023-08-20T09:25:03;6.13;;;3.90;;
28625;SDS011;18905;42.668;23.364;2023-08-20T09:27:28;7.53;;;3.78;;
28625;SDS011;18905;42.668;23.364;2023-08-20T09:29:54;8.45;;;3.70;;
28625;SDS011;18905;42.668;23.364;2023-08-20T09:32:23;8.05;;;3.70;;
28625;SDS011;18905;42.668;23.364;2023-08-20T09:34:49;10.50;;;4.55;;
28625;SDS011;18905;42.668;23.364;2023-08-20T09:37:18;6.57;;;3.85;;
28625;SDS011;18905;42.668;23.364;2023-08-20T09:39:44;7.90;;;3.88;;
28625;SDS011;18905;42.668;23.364;2023-08-20T09:42:10;7.35;;;3.70;;
28625;SDS011;18905;42.668;23.364;2023-08-20T09:44:37;4.88;;;3.13;;
28625;SDS011;18905;42.668;23.364;2023-08-20T09:47:08;5.88;;;3.47;;
28625;SDS011;18905;42.668;23.364;2023-08-20T09:49:43;3.85;;;3.30;;
28625;SDS011;18905;42.668;23.364;2023-08-20T09:52:10;4.15;;;3.10;;
28625;SDS011;18905;42.668;23.364;2023-08-20T09:54:45;5.18;;;3.22;;
28625;SDS011;18905;42.668;23.364;2023-08-20T09:57:16;6.15;;;2.90;;
28625;SDS011;18905;42.668;23.364;2023-08-20T10:00:04;4.45;;;3.03;;
28625;SDS011;18905;42.668;23.364;2023-08-20T10:02:37;3.75;;;2.90;;
28625;SDS011;18905;42.668;23.364;2023-08-20T10:05:04;3.47;;;2.58;;
28625;SDS011;18905;42.668;23.364;2023-08-20T10:07:30;5.82;;;2.92;;
28625;SDS011;18905;42.668;23.364;2023-08-20T10:09:58;8.38;;;3.20;;
28625;SDS011;18905;42.668;23.364;2023-08-20T10:12:28;4.18;;;2.58;;
28625;SDS011;18905;42.668;23.364;2023-08-20T10:14:55;5.97;;;3.42;;
28625;SDS011;18905;42.668;23.364;2023-08-20T10:17:22;3.45;;;3.15;;
28625;SDS011;18905;42.668;23.364;2023-08-20T10:19:48;4.72;;;2.85;;
28625;SDS011;18905;42.668;23.364;2023-08-20T10:22:13;8.40;;;3.50;;
28625;SDS011;18905;42.668;23.364;2023-08-20T10:24:47;4.50;;;2.75;;
28625;SDS011;18905;42.668;23.364;2023-08-20T10:27:23;4.65;;;3.00;;
28625;SDS011;18905;42.668;23.364;2023-08-20T10:29:52;7.25;;;3.15;;
28625;SDS011;18905;42.668;23.364;2023-08-20T10:32:18;5.13;;;3.25;;
28625;SDS011;18905;42.668;23.364;2023-08-20T10:34:47;3.22;;;2.92;;
28625;SDS011;18905;42.668;23.364;2023-08-20T10:37:20;5.63;;;2.72;;
28625;SDS011;18905;42.668;23.364;2023-08-20T10:39:55;4.32;;;3.30;;
28625;SDS011;18905;42.668;23.364;2023-08-20T10:42:25;4.82;;;3.35;;
28625;SDS011;18905;42.668;23.364;2023-08-20T10:52:41;6.25;;;3.22;;
28625;SDS011;18905;42.668;23.364;2023-08-20T10:55:13;6.15;;;3.35;;
28625;SDS011;18905;42.668;23.364;2023-08-20T10:57:39;4.38;;;3.25;;
28625;SDS011;18905;42.668;23.364;2023-08-20T11:00:05;5.90;;;3.40;;
28625;SDS011;18905;42.668;23.364;2023-08-20T11:02:36;7.88;;;3.30;;
28625;SDS011;18905;42.668;23.364;2023-08-20T11:05:02;4.05;;;3.63;;
28625;SDS011;18905;42.668;23.364;2023-08-20T11:07:29;3.58;;;3.10;;
28625;SDS011;18905;42.668;23.364;2023-08-20T11:09:56;6.80;;;3.28;;
28625;SDS011;18905;42.668;23.364;2023-08-20T11:12:22;5.35;;;3.50;;
28625;SDS011;18905;42.668;23.364;2023-08-20T11:14:47;3.67;;;3.00;;
28625;SDS011;18905;42.668;23.364;2023-08-20T11:17:13;5.13;;;3.20;;
28625;SDS011;18905;42.668;23.364;2023-08-20T11:19:38;4.55;;;3.13;;
28625;SDS011;18905;42.668;23.364;2023-08-20T11:22:05;9.00;;;3.35;;
28625;SDS011;18905;42.668;23.364;2023-08-20T11:24:31;6.55;;;3.63;;
28625;SDS011;18905;42.668;23.364;2023-08-20T11:26:57;3.78;;;3.00;;
28625;SDS011;18905;42.668;23.364;2023-08-20T11:29:22;8.32;;;3.33;;
28625;SDS011;18905;42.668;23.364;2023-08-20T11:31:50;4.88;;;3.13;;
28625;SDS011;18905;42.668;23.364;2023-08-20T11:34:15;4.88;;;2.72;;
28625;SDS011;18905;42.668;23.364;2023-08-20T11:36:43;3.03;;;2.83;;
28625;SDS011;18905;42.668;23.364;2023-08-20T11:39:08;5.32;;;3.45;;
28625;SDS011;18905;42.668;23.364;2023-08-20T11:41:37;6.78;;;3.30;;
28625;SDS011;18905;42.668;23.364;2023-08-20T11:44:05;6.13;;;3.20;;
28625;SDS011;18905;42.668;23.364;2023-08-20T11:46:33;3.97;;;3.20;;
28625;SDS011;18905;42.668;23.364;2023-08-20T11:49:08;7.10;;;3.10;;
28625;SDS011;18905;42.668;23.364;2023-08-20T11:51:35;7.13;;;3.30;;
28625;SDS011;18905;42.668;23.364;2023-08-20T11:54:08;10.35;;;3.55;;
28625;SDS011;18905;42.668;23.364;2023-08-20T11:56:36;5.82;;;3.28;;
28625;SDS011;18905;42.668;23.364;2023-08-20T11:59:10;6.10;;;3.45;;
28625;SDS011;18905;42.668;23.364;2023-08-20T12:01:36;4.30;;;3.60;;
28625;SDS011;18905;42.668;23.364;2023-08-20T12:04:05;5.95;;;3.60;;
28625;SDS011;18905;42.668;23.364;2023-08-20T12:06:32;6.60;;;3.58;;
28625;SDS011;18905;42.668;23.364;2023-08-20T12:08:59;5.25;;;3.22;;
28625;SDS011;18905;42.668;23.364;2023-08-20T12:11:26;3.22;;;2.92;;
28625;SDS011;18905;42.668;23.364;2023-08-20T12:13:52;4.63;;;3.60;;
28625;SDS011;18905;42.668;23.364;2023-08-20T12:16:21;6.53;;;3.58;;
28625;SDS011;18905;42.668;23.364;2023-08-20T12:18:47;7.95;;;3.35;;
28625;SDS011;18905;42.668;23.364;2023-08-20T12:21:12;6.50;;;3.67;;
28625;SDS011;18905;42.668;23.364;2023-08-20T12:23:38;4.75;;;3.25;;
28625;SDS011;18905;42.668;23.364;2023-08-20T12:26:04;5.57;;;3.45;;
28625;SDS011;18905;42.668;23.364;2023-08-20T12:28:29;5.18;;;3.20;;
28625;SDS011;18905;42.668;23.364;2023-08-20T12:30:54;8.75;;;3.78;;
28625;SDS011;18905;42.668;23.364;2023-08-20T12:33:20;8.02;;;3.60;;
28625;SDS011;18905;42.668;23.364;2023-08-20T12:35:46;5.88;;;3.13;;
28625;SDS011;18905;42.668;23.364;2023-08-20T12:38:11;7.20;;;3.47;;
28625;SDS011;18905;42.668;23.364;2023-08-20T12:40:37;4.18;;;3.50;;
28625;SDS011;18905;42.668;23.364;2023-08-20T12:43:02;4.93;;;3.33;;
28625;SDS011;18905;42.668;23.364;2023-08-20T12:45:28;7.00;;;3.45;;
28625;SDS011;18905;42.668;23.364;2023-08-20T12:47:54;5.35;;;3.53;;
28625;SDS011;18905;42.668;23.364;2023-08-20T12:50:19;5.50;;;3.58;;
28625;SDS011;18905;42.668;23.364;2023-08-20T12:52:45;5.75;;;3.60;;
28625;SDS011;18905;42.668;23.364;2023-08-20T12:55:12;9.73;;;3.17;;
28625;SDS011;18905;42.668;23.364;2023-08-20T12:57:41;5.78;;;3.40;;
28625;SDS011;18905;42.668;23.364;2023-08-20T13:00:17;4.68;;;3.50;;
28625;SDS011;18905;42.668;23.364;2023-08-20T13:02:43;4.53;;;3.25;;
28625;SDS011;18905;42.668;23.364;2023-08-20T13:05:09;4.95;;;3.05;;
28625;SDS011;18905;42.668;23.364;2023-08-20T13:07:35;9.15;;;3.47;;
28625;SDS011;18905;42.668;23.364;2023-08-20T13:10:01;5.10;;;3.08;;
28625;SDS011;18905;42.668;23.364;2023-08-20T13:12:27;5.25;;;3.38;;
28625;SDS011;18905;42.668;23.364;2023-08-20T13:14:53;4.63;;;3.58;;
28625;SDS011;18905;42.668;23.364;2023-08-20T13:17:18;6.03;;;3.17;;
28625;SDS011;18905;42.668;23.364;2023-08-20T13:19:44;5.40;;;3.50;;
28625;SDS011;18905;42.668;23.364;2023-08-20T13:22:09;3.65;;;3.33;;
28625;SDS011;18905;42.668;23.364;2023-08-20T13:24:35;5.15;;;3.25;;
28625;SDS011;18905;42.668;23.364;2023-08-20T13:27:00;5.38;;;3.40;;
28625;SDS011;18905;42.668;23.364;2023-08-20T13:29:25;5.75;;;3.50;;
28625;SDS011;18905;42.668;23.364;2023-08-20T13:31:51;7.85;;;3.20;;
28625;SDS011;18905;42.668;23.364;2023-08-20T13:34:16;6.45;;;3.17;;
28625;SDS011;18905;42.668;23.364;2023-08-20T13:36:41;5.78;;;3.38;;
28625;SDS011;18905;42.668;23.364;2023-08-20T13:39:07;5.53;;;3.38;;
28625;SDS011;18905;42.668;23.364;2023-08-20T13:41:32;3.95;;;3.42;;
28625;SDS011;18905;42.668;23.364;2023-08-20T13:43:58;3.75;;;3.38;;
28625;SDS011;18905;42.668;23.364;2023-08-20T13:46:23;6.47;;;3.60;;
28625;SDS011;18905;42.668;23.364;2023-08-20T13:48:48;8.13;;;3.50;;
28625;SDS011;18905;42.668;23.364;2023-08-20T13:51:14;4.55;;;3.10;;
28625;SDS011;18905;42.668;23.364;2023-08-20T13:53:39;5.32;;;3.25;;
28625;SDS011;18905;42.668;23.364;2023-08-20T13:56:04;9.00;;;3.30;;
28625;SDS011;18905;42.668;23.364;2023-08-20T13:58:30;6.13;;;3.60;;
28625;SDS011;18905;42.668;23.364;2023-08-20T14:00:55;4.53;;;3.20;;
28625;SDS011;18905;42.668;23.364;2023-08-20T14:03:20;4.55;;;3.30;;
28625;SDS011;18905;42.668;23.364;2023-08-20T14:05:46;9.70;;;3.65;;
28625;SDS011;18905;42.668;23.364;2023-08-20T14:08:12;5.28;;;3.50;;
28625;SDS011;18905;42.668;23.364;2023-08-20T14:10:37;6.63;;;3.60;;
28625;SDS011;18905;42.668;23.364;2023-08-20T14:13:03;8.40;;;3.33;;
28625;SDS011;18905;42.668;23.364;2023-08-20T14:15:28;5.15;;;3.22;;
28625;SDS011;18905;42.668;23.364;2023-08-20T14:17:54;5.35;;;3.10;;
28625;SDS011;18905;42.668;23.364;2023-08-20T14:20:19;4.47;;;3.10;;
28625;SDS011;18905;42.668;23.364;2023-08-20T14:22:45;3.95;;;3.03;;
28625;SDS011;18905;42.668;23.364;2023-08-20T14:25:10;5.68;;;3.47;;
28625;SDS011;18905;42.668;23.364;2023-08-20T14:27:35;6.60;;;3.20;;
28625;SDS011;18905;42.668;23.364;2023-08-20T14:30:01;5.00;;;3.28;;
28625;SDS011;18905;42.668;23.364;2023-08-20T14:32:27;5.07;;;3.10;;
28625;SDS011;18905;42.668;23.364;2023-08-20T14:34:52;5.03;;;3.20;;